createdAt,value
2019-02-11T00:02:20.869Z,97983.51
2019-02-11T00:04:47.883Z,98008.94
2019-02-11T00:07:14.920Z,98008.94
2019-02-11T00:09:41.776Z,98022.45
2019-02-11T00:12:08.497Z,98006.52
2019-02-11T00:14:36.776Z,98012.97
2019-02-11T00:17:03.666Z,98012.22
2019-02-11T00:19:35.390Z,98029.05
2019-02-11T00:22:02.224Z,98038.48
2019-02-11T00:24:28.984Z,98038.48
2019-02-11T00:26:55.879Z,98050.70
2019-02-11T00:29:24.480Z,98050.94
2019-02-11T00:31:51.218Z,98050.94
2019-02-11T00:34:18.213Z,98047.73
2019-02-11T00:36:44.918Z,98060.59
2019-02-11T00:39:12.046Z,98060.59
2019-02-11T00:41:38.914Z,98056.27
2019-02-11T00:44:05.689Z,98056.27
2019-02-11T00:46:32.458Z,98073.30
2019-02-11T00:48:59.180Z,98073.30
2019-02-11T00:51:26.050Z,98063.03
2019-02-11T00:53:52.868Z,98088.55
2019-02-11T00:56:19.634Z,98076.85
2019-02-11T00:58:46.428Z,98093.73
2019-02-11T01:01:13.227Z,98100.84
2019-02-11T01:03:40.132Z,98113.70
2019-02-11T01:06:06.874Z,98105.66
2019-02-11T01:08:34.782Z,98123.41
2019-02-11T01:11:01.543Z,98127.10
2019-02-11T01:13:31.271Z,98127.10
2019-02-11T01:15:58.070Z,98139.20
2019-02-11T01:18:25.511Z,98140.22
2019-02-11T01:20:52.700Z,98140.00
2019-02-11T01:23:19.417Z,98163.33
2019-02-11T01:25:46.206Z,98170.39
2019-02-11T01:28:13.022Z,98170.39
2019-02-11T01:30:39.876Z,98175.69
2019-02-11T01:33:06.634Z,98176.96
2019-02-11T01:35:33.488Z,98179.80
2019-02-11T01:38:00.308Z,98184.91
2019-02-11T01:40:27.066Z,98184.69
2019-02-11T01:42:53.839Z,98191.01
2019-02-11T01:45:20.550Z,98191.01
2019-02-11T01:47:47.296Z,98203.05
2019-02-11T01:50:14.173Z,98198.36
2019-02-11T01:52:42.920Z,98204.48
2019-02-11T01:55:09.648Z,98199.47
2019-02-11T01:57:36.364Z,98201.58
2019-02-11T02:00:04.115Z,98201.58
2019-02-11T02:02:31.006Z,98222.08
2019-02-11T02:04:59.838Z,98216.11
2019-02-11T02:07:26.622Z,98216.11
2019-02-11T02:09:53.381Z,98211.61
2019-02-11T02:12:20.098Z,98211.61
2019-02-11T02:14:46.850Z,98221.86
2019-02-11T02:17:18.101Z,98218.56
2019-02-11T02:19:45.199Z,98218.56
2019-02-11T02:22:12.042Z,98230.92
2019-02-11T02:24:38.806Z,98237.05
2019-02-11T02:27:05.574Z,98230.80
2019-02-11T02:29:35.279Z,98234.98
2019-02-11T02:32:02.024Z,98252.45
2019-02-11T02:34:28.789Z,98246.73
2019-02-11T02:36:57.832Z,98246.73
2019-02-11T02:39:24.567Z,98244.81
2019-02-11T02:41:51.341Z,98268.95
2019-02-11T02:44:18.202Z,98267.53
2019-02-11T02:46:44.914Z,98280.92
2019-02-11T02:49:12.990Z,98275.91
2019-02-11T02:51:39.691Z,98275.91
2019-02-11T02:54:06.497Z,98278.55
2019-02-11T02:56:33.399Z,98296.47
2019-02-11T02:59:00.154Z,98296.33
2019-02-11T03:01:26.895Z,98282.41
2019-02-11T03:03:53.643Z,98295.41
2019-02-11T03:06:20.394Z,98291.89
2019-02-11T03:08:47.259Z,98297.16
2019-02-11T03:11:14.456Z,98317.05
2019-02-11T03:13:41.201Z,98303.81
2019-02-11T03:16:07.922Z,98303.81
2019-02-11T03:18:34.681Z,98317.09
2019-02-11T03:21:02.895Z,98329.00
2019-02-11T03:23:29.715Z,98332.97
2019-02-11T03:25:56.467Z,98332.97
2019-02-11T03:28:23.634Z,98324.09
2019-02-11T03:30:50.418Z,98333.01
2019-02-11T03:33:17.252Z,98333.01
2019-02-11T03:35:44.004Z,98329.77
2019-02-11T03:38:10.815Z,98329.77
2019-02-11T03:40:37.528Z,98345.30
2019-02-11T03:43:04.391Z,98345.30
2019-02-11T03:45:31.435Z,98356.87
2019-02-11T03:47:58.373Z,98371.80
2019-02-11T03:50:25.085Z,98371.80
2019-02-11T03:52:51.852Z,98373.41
2019-02-11T03:55:18.614Z,98378.05
2019-02-11T03:57:45.331Z,98386.54
2019-02-11T04:00:12.064Z,98386.54
2019-02-11T04:02:38.800Z,98389.31
2019-02-11T04:05:05.645Z,98398.87
2019-02-11T04:07:32.413Z,98418.58
2019-02-11T04:09:59.392Z,98413.17
2019-02-11T04:12:26.184Z,98413.17
2019-02-11T04:14:52.907Z,98420.52
2019-02-11T04:17:19.665Z,98435.22
2019-02-11T04:19:46.499Z,98440.66
2019-02-11T04:22:13.341Z,98440.66
2019-02-11T04:24:40.099Z,98443.33
2019-02-11T04:27:07.315Z,98456.36
2019-02-11T04:29:34.126Z,98457.29
2019-02-11T04:32:00.862Z,98467.38
2019-02-11T04:34:27.647Z,98467.38
2019-02-11T04:36:54.444Z,98473.16
2019-02-11T04:39:21.153Z,98486.38
2019-02-11T04:41:47.918Z,98493.77
2019-02-11T04:44:15.997Z,98499.02
2019-02-11T04:46:42.730Z,98499.02
2019-02-11T04:49:09.448Z,98518.42
2019-02-11T04:51:38.279Z,98521.09
2019-02-11T04:54:05.056Z,98521.09
2019-02-11T04:56:31.791Z,98529.09
2019-02-11T04:58:58.648Z,98529.09
2019-02-11T05:01:25.428Z,98527.09
2019-02-11T05:03:53.983Z,98527.09
2019-02-11T05:06:20.905Z,98537.50
2019-02-11T05:08:48.357Z,98544.51
2019-02-11T05:11:17.288Z,98542.64
2019-02-11T05:13:44.029Z,98548.89
2019-02-11T05:16:10.832Z,98555.48
2019-02-11T05:18:37.746Z,98571.50
2019-02-11T05:21:06.956Z,98573.17
2019-02-11T05:23:33.745Z,98573.17
2019-02-11T05:26:00.669Z,98581.16
2019-02-11T05:28:29.431Z,98581.16
2019-02-11T05:30:56.178Z,98581.92
2019-02-11T05:33:23.111Z,98581.92
2019-02-11T05:35:50.301Z,98592.73
2019-02-11T05:38:17.179Z,98596.09
2019-02-11T05:40:44.522Z,98596.09
2019-02-11T05:43:11.534Z,98589.64
2019-02-11T05:45:39.140Z,98606.55
2019-02-11T05:48:05.905Z,98605.75
2019-02-11T05:50:32.728Z,98603.88
2019-02-11T05:53:00.104Z,98603.88
2019-02-11T05:55:26.861Z,98603.64
2019-02-11T05:57:53.726Z,98618.66
2019-02-11T06:00:20.536Z,98611.92
2019-02-11T06:02:49.812Z,98630.34
2019-02-11T06:05:17.412Z,98630.34
2019-02-11T06:07:44.188Z,98620.52
2019-02-11T06:10:10.971Z,98643.75
2019-02-11T06:12:41.010Z,98644.16
2019-02-11T06:15:08.152Z,98644.16
2019-02-11T06:17:35.256Z,98655.94
2019-02-11T06:20:02.055Z,98655.94
2019-02-11T06:22:28.968Z,98661.61
2019-02-11T06:24:55.840Z,98672.48
2019-02-11T06:27:22.992Z,98686.00
2019-02-11T06:29:49.751Z,98672.60
2019-02-11T06:32:17.274Z,98686.62
2019-02-11T06:34:44.024Z,98698.84
2019-02-11T06:37:11.365Z,98692.61
2019-02-11T06:39:38.214Z,98697.89
2019-02-11T06:42:04.952Z,98699.08
2019-02-11T06:44:31.814Z,98699.08
2019-02-11T06:47:01.861Z,98714.14
2019-02-11T06:49:28.623Z,98721.12
2019-02-11T06:51:55.437Z,98721.86
2019-02-11T06:54:22.193Z,98734.55
2019-02-11T06:56:49.012Z,98734.55
2019-02-11T06:59:16.274Z,98741.36
2019-02-11T07:01:47.669Z,98746.08
2019-02-11T07:04:16.258Z,98746.08
2019-02-11T07:06:44.942Z,98764.41
2019-02-11T07:09:12.163Z,98765.08
2019-02-11T07:11:40.856Z,98807.19
2019-02-11T07:14:07.790Z,98790.25
2019-02-11T07:16:34.710Z,98795.84
2019-02-11T07:19:02.434Z,98802.42
2019-02-11T07:21:32.120Z,98808.75
2019-02-11T07:24:00.451Z,98821.70
2019-02-11T07:26:27.371Z,98821.70
2019-02-11T07:28:57.708Z,98835.81
2019-02-11T07:31:24.700Z,98833.91
2019-02-11T07:33:51.886Z,98843.39
2019-02-11T07:36:23.165Z,98847.21
2019-02-11T07:38:51.418Z,98847.21
2019-02-11T07:41:20.486Z,98858.61
2019-02-11T07:44:01.988Z,98854.78
2019-02-11T07:46:32.854Z,98849.76
2019-02-11T07:48:59.608Z,98859.81
2019-02-11T07:51:26.430Z,98862.64
2019-02-11T07:53:55.000Z,98863.58
2019-02-11T07:56:22.039Z,98870.41
2019-02-11T07:58:49.037Z,98879.47
2019-02-11T08:01:16.019Z,98883.09
2019-02-11T08:03:45.847Z,98882.45
2019-02-11T08:06:12.886Z,98876.48
2019-02-11T08:08:39.646Z,98893.39
2019-02-11T08:11:06.950Z,98895.23
2019-02-11T08:13:34.008Z,98898.02
2019-02-11T08:16:00.784Z,98902.18
2019-02-11T08:18:28.761Z,98910.63
2019-02-11T08:20:58.312Z,98919.05
2019-02-11T08:23:25.176Z,98914.11
2019-02-11T08:25:53.392Z,98939.67
2019-02-11T08:28:20.164Z,98951.84
2019-02-11T08:30:48.075Z,98951.84
2019-02-11T08:33:14.830Z,98958.96
2019-02-11T08:35:41.704Z,98955.98
2019-02-11T08:38:08.734Z,98946.88
2019-02-11T08:40:36.848Z,98946.88
2019-02-11T08:43:03.818Z,98964.94
2019-02-11T08:45:31.540Z,98985.07
2019-02-11T08:47:58.588Z,98985.07
2019-02-11T08:50:25.702Z,98980.23
2019-02-11T08:52:52.753Z,98985.50
2019-02-11T08:55:19.508Z,98983.72
2019-02-11T08:57:48.212Z,99003.76
2019-02-11T09:00:17.328Z,99003.76
2019-02-11T09:02:46.510Z,98997.11
2019-02-11T09:05:13.554Z,99003.66
2019-02-11T09:07:40.328Z,99016.95
2019-02-11T09:10:09.782Z,99016.45
2019-02-11T09:12:39.871Z,99019.84
2019-02-11T09:15:16.991Z,99025.32
2019-02-11T09:17:51.122Z,99028.27
2019-02-11T09:20:18.557Z,99028.27
2019-02-11T09:22:45.296Z,99027.27
2019-02-11T09:25:13.474Z,99039.44
2019-02-11T09:27:40.405Z,99048.27
2019-02-11T09:30:10.410Z,99054.48
2019-02-11T09:32:37.189Z,99054.48
2019-02-11T09:35:04.681Z,99056.23
2019-02-11T09:37:31.589Z,99055.36
2019-02-11T09:40:00.971Z,99080.05
2019-02-11T09:42:28.489Z,99080.05
2019-02-11T09:44:55.694Z,99089.48
2019-02-11T09:47:27.447Z,99088.67
2019-02-11T09:50:14.952Z,99098.02
2019-02-11T09:52:46.195Z,99110.24
2019-02-11T09:55:16.757Z,99110.24
2019-02-11T09:57:43.653Z,99091.41
2019-02-11T10:00:11.208Z,99091.41
2019-02-11T10:02:38.401Z,99109.44
2019-02-11T10:05:05.197Z,99109.44
2019-02-11T10:07:31.946Z,99121.16
2019-02-11T10:09:58.740Z,99123.63
2019-02-11T10:12:25.568Z,99131.77
2019-02-11T10:14:57.092Z,99131.77
2019-02-11T10:17:29.646Z,99133.83
2019-02-11T10:19:55.407Z,99143.45
2019-02-11T10:22:22.160Z,99143.45
2019-02-11T10:24:49.938Z,99159.54
2019-02-11T10:27:17.034Z,99159.54
2019-02-11T10:29:44.548Z,99180.06
2019-02-11T10:32:11.275Z,99180.88
2019-02-11T10:34:41.883Z,99191.42
2019-02-11T10:37:08.856Z,99179.05
2019-02-11T10:39:37.604Z,99187.02
2019-02-11T10:42:04.367Z,99187.02
2019-02-11T10:44:32.187Z,99196.89
2019-02-11T10:46:59.237Z,99195.23
2019-02-11T10:49:26.001Z,99195.23
2019-02-11T10:51:55.856Z,99207.41
2019-02-11T10:54:26.331Z,99204.55
2019-02-11T10:56:55.204Z,99207.62
2019-02-11T10:59:22.130Z,99220.33
2019-02-11T11:01:49.310Z,99219.02
2019-02-11T11:04:19.873Z,99225.92
2019-02-11T11:06:47.206Z,99245.43
2019-02-11T11:09:15.241Z,99248.45
2019-02-11T11:11:42.113Z,99239.48
2019-02-11T11:14:13.881Z,99240.41
2019-02-11T11:16:42.549Z,99238.37
2019-02-11T11:19:09.525Z,99254.64
2019-02-11T11:21:36.352Z,99254.64
2019-02-11T11:24:03.102Z,99245.53
2019-02-11T11:26:34.915Z,99248.48
2019-02-11T11:29:03.862Z,99252.59
2019-02-11T11:31:31.784Z,99242.78
2019-02-11T11:34:00.775Z,99242.78
2019-02-11T11:36:27.533Z,99075.23
2019-02-11T11:38:54.372Z,99261.93
2019-02-11T11:41:21.293Z,99260.25
2019-02-11T11:43:48.077Z,99267.83
2019-02-11T11:46:14.929Z,99267.83
2019-02-11T11:48:41.830Z,99265.16
2019-02-11T11:51:09.008Z,99265.16
2019-02-11T11:53:36.455Z,99264.78
2019-02-11T11:56:03.619Z,99274.69
2019-02-11T11:58:30.605Z,99274.69
2019-02-11T12:00:57.410Z,99284.20
2019-02-11T12:03:26.009Z,99282.08
2019-02-11T12:05:55.075Z,99284.81
2019-02-11T12:08:25.893Z,99276.61
2019-02-11T12:10:52.714Z,99289.83
2019-02-11T12:13:22.830Z,99282.58
2019-02-11T12:15:52.687Z,99292.10
2019-02-11T12:18:19.805Z,99299.23
2019-02-11T12:20:46.574Z,99298.83
2019-02-11T12:23:16.073Z,99277.59
2019-02-11T12:25:42.868Z,99277.59
2019-02-11T12:28:11.832Z,99284.31
2019-02-11T12:30:38.914Z,99271.18
2019-02-11T12:33:05.868Z,99299.92
2019-02-11T12:35:32.670Z,99300.58
2019-02-11T12:37:59.608Z,99310.84
2019-02-11T12:40:26.995Z,99288.97
2019-02-11T12:42:54.317Z,99291.19
2019-02-11T12:45:22.064Z,99295.30
2019-02-11T12:47:48.953Z,99294.05
2019-02-11T12:50:16.288Z,99290.68
2019-02-11T12:52:43.460Z,99298.91
2019-02-11T12:55:11.261Z,99298.91
2019-02-11T12:57:40.962Z,99303.69
2019-02-11T13:00:16.775Z,99325.30
2019-02-11T13:02:45.481Z,99324.88
2019-02-11T13:05:12.431Z,99324.20
2019-02-11T13:07:39.251Z,99331.48
2019-02-11T13:10:09.971Z,99331.48
2019-02-11T13:12:37.091Z,99343.72
2019-02-11T13:15:33.497Z,99343.20
2019-02-11T13:17:43.935Z,99349.72
2019-02-11T13:20:12.174Z,99346.45
2019-02-11T13:22:39.420Z,99352.45
2019-02-11T13:25:12.498Z,99361.23
2019-02-11T13:27:39.447Z,99378.87
2019-02-11T13:30:08.947Z,99363.52
2019-02-11T13:32:35.996Z,99375.30
2019-02-11T13:35:03.933Z,99383.27
2019-02-11T13:37:34.516Z,99389.50
2019-02-11T13:40:01.393Z,99395.70
2019-02-11T13:42:29.164Z,99389.64
2019-02-11T13:44:55.869Z,99406.94
2019-02-11T13:47:23.676Z,99431.95
2019-02-11T13:49:50.392Z,99420.85
2019-02-11T13:52:19.445Z,99425.36
2019-02-11T13:54:46.636Z,99433.73
2019-02-11T13:57:14.011Z,99429.84
2019-02-11T13:59:41.199Z,99429.67
2019-02-11T14:02:07.942Z,99430.58
2019-02-11T14:04:34.719Z,99435.87
2019-02-11T14:07:09.471Z,99437.03
2019-02-11T14:09:43.046Z,99437.03
2019-02-11T14:12:09.897Z,99461.84
2019-02-11T14:14:38.293Z,99446.34
2019-02-11T14:17:09.171Z,99460.72
2019-02-11T14:19:37.373Z,99466.42
2019-02-11T14:22:04.138Z,99454.59
2019-02-11T14:24:30.970Z,99461.28
2019-02-11T14:26:58.580Z,99462.83
2019-02-11T14:29:26.012Z,99470.16
2019-02-11T14:31:53.141Z,99480.11
2019-02-11T14:34:20.788Z,99477.93
2019-02-11T14:36:47.657Z,99488.20
2019-02-11T14:39:14.426Z,99502.23
2019-02-11T14:41:42.095Z,99501.87
2019-02-11T14:44:13.099Z,99502.55
2019-02-11T14:46:38.421Z,99522.10
2019-02-11T14:49:08.030Z,99519.86
2019-02-11T14:51:35.938Z,99514.21
2019-02-11T14:54:07.291Z,99527.59
2019-02-11T14:56:37.947Z,99526.00
2019-02-11T14:59:04.665Z,99525.70
2019-02-11T15:01:35.877Z,99534.29
2019-02-11T15:04:02.767Z,99535.38
2019-02-11T15:06:31.458Z,99532.89
2019-02-11T15:08:58.235Z,99531.27
2019-02-11T15:11:25.058Z,99542.84
2019-02-11T15:13:54.311Z,99530.61
2019-02-11T15:16:22.119Z,99524.66
2019-02-11T15:18:48.879Z,99534.09
2019-02-11T15:21:15.758Z,99538.84
2019-02-11T15:23:42.617Z,99533.42
2019-02-11T15:26:09.480Z,99528.67
2019-02-11T15:28:36.785Z,99533.28
2019-02-11T15:31:06.550Z,99531.92
2019-02-11T15:33:33.634Z,99542.17
2019-02-11T15:36:01.653Z,99545.14
2019-02-11T15:38:29.160Z,99555.88
2019-02-11T15:40:55.908Z,99569.03
2019-02-11T15:43:23.987Z,99570.23
2019-02-11T15:45:50.754Z,99572.20
2019-02-11T15:48:17.661Z,99574.91
2019-02-11T15:50:50.168Z,99583.44
2019-02-11T15:53:17.577Z,99582.64
2019-02-11T15:55:45.131Z,99595.38
2019-02-11T15:58:11.916Z,99593.23
2019-02-11T16:00:38.924Z,99597.37
2019-02-11T16:03:07.804Z,99591.38
2019-02-11T16:05:34.602Z,99593.94
2019-02-11T16:08:07.754Z,99597.91
2019-02-11T16:10:38.229Z,99596.51
2019-02-11T16:13:05.810Z,99598.74
2019-02-11T16:15:32.699Z,99597.52
2019-02-11T16:17:59.839Z,99607.69
2019-02-11T16:20:27.072Z,99608.44
2019-02-11T16:22:53.967Z,99608.88
2019-02-11T16:25:20.877Z,99608.05
2019-02-11T16:27:50.645Z,99602.10
2019-02-11T16:30:17.687Z,99600.57
2019-02-11T16:32:49.738Z,99603.52
2019-02-11T16:35:18.506Z,99621.31
2019-02-11T16:37:45.339Z,99634.80
2019-02-11T16:40:16.144Z,99640.34
2019-02-11T16:42:43.048Z,99650.63
2019-02-11T16:45:09.817Z,99677.45
2019-02-11T16:47:36.759Z,99681.27
2019-02-11T16:50:04.100Z,99696.73
2019-02-11T16:52:31.173Z,99697.16
2019-02-11T16:55:02.077Z,99696.28
2019-02-11T16:57:28.877Z,99692.06
2019-02-11T16:59:57.785Z,99696.08
2019-02-11T17:02:24.992Z,99707.52
2019-02-11T17:04:52.320Z,99710.22
2019-02-11T17:07:19.183Z,99712.63
2019-02-11T17:09:47.136Z,99716.48
2019-02-11T17:12:16.105Z,99728.69
2019-02-11T17:14:43.059Z,99731.66
2019-02-11T17:17:10.555Z,99740.78
2019-02-11T17:19:40.361Z,99739.91
2019-02-11T17:22:07.317Z,99749.77
2019-02-11T17:24:34.733Z,99747.38
2019-02-11T17:27:01.548Z,99746.56
2019-02-11T17:29:28.824Z,99753.56
2019-02-11T17:31:55.670Z,99758.59
2019-02-11T17:34:22.421Z,99761.13
2019-02-11T17:36:53.234Z,99763.39
2019-02-11T17:39:20.073Z,99757.47
2019-02-11T17:41:46.958Z,99770.03
2019-02-11T17:44:13.776Z,99779.73
2019-02-11T17:46:40.604Z,99794.48
2019-02-11T17:49:07.477Z,99796.30
2019-02-11T17:51:35.021Z,99807.55
2019-02-11T17:54:02.275Z,99811.27
2019-02-11T17:56:29.095Z,99822.30
2019-02-11T17:58:57.523Z,99817.54
2019-02-11T18:01:24.428Z,99830.76
2019-02-11T18:03:51.362Z,99831.05
2019-02-11T18:06:19.416Z,99839.15
2019-02-11T18:08:46.296Z,99841.33
2019-02-11T18:11:15.397Z,99851.69
2019-02-11T18:13:42.664Z,99853.48
2019-02-11T18:16:09.449Z,99859.97
2019-02-11T18:18:36.652Z,99871.87
2019-02-11T18:21:03.594Z,99881.88
2019-02-11T18:23:32.670Z,99875.86
2019-02-11T18:25:59.513Z,99878.12
2019-02-11T18:28:26.237Z,99881.16
2019-02-11T18:30:53.071Z,99888.09
2019-02-11T18:33:19.912Z,99888.09
2019-02-11T18:35:46.700Z,99892.94
2019-02-11T18:38:13.942Z,99895.69
2019-02-11T18:40:40.929Z,99909.66
2019-02-11T18:43:07.706Z,99913.38
2019-02-11T18:45:34.600Z,99903.65
2019-02-11T18:48:01.559Z,99919.56
2019-02-11T18:50:28.455Z,99919.56
2019-02-11T18:52:57.166Z,99929.59
2019-02-11T18:55:24.033Z,99939.73
2019-02-11T18:57:50.892Z,99947.11
2019-02-11T19:00:18.316Z,99942.70
2019-02-11T19:02:45.245Z,99942.58
2019-02-11T19:05:12.053Z,99942.58
2019-02-11T19:07:39.163Z,99945.30
2019-02-11T19:10:10.900Z,99950.55
2019-02-11T19:12:38.144Z,99957.17
2019-02-11T19:15:06.420Z,99966.60
2019-02-11T19:17:33.666Z,99967.67
2019-02-11T19:20:01.249Z,99989.06
2019-02-11T19:22:28.097Z,99995.99
2019-02-11T19:24:55.151Z,100004.69
2019-02-11T19:27:22.002Z,100010.03
2019-02-11T19:29:48.848Z,100020.01
2019-02-11T19:32:17.128Z,100017.52
2019-02-11T19:34:44.183Z,100024.73
2019-02-11T19:37:11.820Z,100014.42
2019-02-11T19:39:38.806Z,100021.84
2019-02-11T19:42:05.813Z,100022.63
2019-02-11T19:44:32.865Z,100025.85
2019-02-11T19:46:59.804Z,100020.37
2019-02-11T19:49:26.533Z,100028.41
2019-02-11T19:51:53.662Z,100029.59
2019-02-11T19:54:20.631Z,100022.91
2019-02-11T19:56:47.677Z,100023.41
2019-02-11T19:59:15.239Z,100034.72
2019-02-11T20:01:41.986Z,100034.02
2019-02-11T20:04:08.967Z,100055.67
2019-02-11T20:06:35.731Z,100069.83
2019-02-11T20:09:04.129Z,100076.70
2019-02-11T20:11:31.116Z,100088.16
2019-02-11T20:13:57.885Z,100088.16
2019-02-11T20:16:24.885Z,100088.78
2019-02-11T20:18:51.741Z,100080.84
2019-02-11T20:21:18.774Z,100084.23
2019-02-11T20:23:47.696Z,100090.50
2019-02-11T20:26:14.580Z,100089.09
2019-02-11T20:28:41.625Z,100089.58
2019-02-11T20:31:08.727Z,100086.57
2019-02-11T20:33:35.503Z,100081.72
2019-02-11T20:36:02.510Z,100087.67
2019-02-11T20:38:29.397Z,100082.64
2019-02-11T20:40:56.399Z,100086.97
2019-02-11T20:43:23.137Z,100077.19
2019-02-11T20:45:49.874Z,100078.90
2019-02-11T20:48:16.729Z,100086.69
2019-02-11T20:50:43.710Z,100085.98
2019-02-11T20:53:11.188Z,100092.71
2019-02-11T20:55:39.996Z,100090.80
2019-02-11T20:58:06.794Z,100070.96
2019-02-11T21:00:33.966Z,100069.66
2019-02-11T21:03:08.130Z,100065.51
2019-02-11T21:05:29.827Z,100042.30
2019-02-11T21:07:56.701Z,100036.34
2019-02-11T21:10:23.635Z,100037.27
2019-02-11T21:12:50.651Z,100047.66
2019-02-11T21:15:18.641Z,100058.03
2019-02-11T21:17:45.728Z,100067.53
2019-02-11T21:20:17.689Z,100069.33
2019-02-11T21:22:44.681Z,100070.75
2019-02-11T21:25:11.979Z,100079.22
2019-02-11T21:27:38.806Z,100093.34
2019-02-11T21:30:06.675Z,100091.41
2019-02-11T21:32:33.583Z,100095.34
2019-02-11T21:35:00.693Z,100101.47
2019-02-11T21:37:27.414Z,100101.47
2019-02-11T21:39:54.306Z,100119.59
2019-02-11T21:42:22.096Z,100133.06
2019-02-11T21:44:49.362Z,100141.16
2019-02-11T21:47:16.360Z,100146.66
2019-02-11T21:49:43.308Z,100156.28
2019-02-11T21:52:10.582Z,100156.28
2019-02-11T21:54:37.732Z,100192.72
2019-02-11T21:57:04.506Z,100198.78
2019-02-11T21:59:31.485Z,100191.63
2019-02-11T22:01:58.597Z,100199.69
2019-02-11T22:04:25.621Z,100207.05
2019-02-11T22:06:52.466Z,100225.83
2019-02-11T22:09:19.270Z,100225.83
2019-02-11T22:11:47.278Z,100214.92
2019-02-11T22:14:14.079Z,100230.16
2019-02-11T22:16:41.123Z,100229.38
2019-02-11T22:19:08.026Z,100235.44
2019-02-11T22:21:34.984Z,100243.33
2019-02-11T22:24:02.326Z,100243.33
2019-02-11T22:26:29.361Z,100240.41
2019-02-11T22:28:56.415Z,100228.25
2019-02-11T22:31:24.484Z,100237.94
2019-02-11T22:33:51.639Z,100238.75
2019-02-11T22:36:19.710Z,100240.75
2019-02-11T22:38:46.632Z,100245.69
2019-02-11T22:41:15.422Z,100242.36
2019-02-11T22:43:42.703Z,100241.13
2019-02-11T22:46:09.500Z,100247.39
2019-02-11T22:48:36.265Z,100247.39
2019-02-11T22:51:03.492Z,100248.86
2019-02-11T22:53:30.386Z,100241.00
2019-02-11T22:55:57.219Z,100245.54
2019-02-11T22:58:25.063Z,100248.50
2019-02-11T23:01:04.208Z,100250.69
2019-02-11T23:03:33.872Z,100253.99
2019-02-11T23:06:00.867Z,100264.05
2019-02-11T23:08:28.001Z,100258.05
2019-02-11T23:10:54.952Z,100263.95
2019-02-11T23:13:22.526Z,100263.95
2019-02-11T23:15:50.366Z,100283.26
2019-02-11T23:18:17.716Z,100283.26
2019-02-11T23:20:51.777Z,100287.63
2019-02-11T23:23:14.592Z,100298.18
2019-02-11T23:25:41.438Z,100298.18
2019-02-11T23:28:08.290Z,100308.70
2019-02-11T23:30:35.110Z,100308.70
2019-02-11T23:33:02.155Z,100312.76
2019-02-11T23:35:31.883Z,100309.60
2019-02-11T23:37:58.702Z,100308.27
2019-02-11T23:40:25.871Z,100308.27
2019-02-11T23:42:52.822Z,100303.86
2019-02-11T23:45:20.102Z,100311.16
2019-02-11T23:47:47.077Z,100299.11
2019-02-11T23:50:13.843Z,100310.73
2019-02-11T23:52:41.005Z,100303.15
2019-02-11T23:55:08.303Z,100303.15
2019-02-11T23:57:35.690Z,100309.93
